Bokoro Airport

FTTK · Hadjer-Lamis, Ciad

Storia di METAR FTTK · Bokoro Airport

Di seguito sono riportati i METAR degli ultimi giorni. Seleziona un anno per sfogliare i METAR più vecchi, dall'anno 2007 in poi.

23 luglio 2024

Tempo Codice Tempo meteorologico Temp. Vista Base nuvolosa Vento METAR/SPECI
23:00
V
25 °C 8 km - 270° 270° 5 kt METAR FTTJ 232200Z 27005KT 8000 SCT033 25/24 Q1015 NOSIG
22:00
V
26 °C 8 km - 300° 300° 4 kt METAR FTTJ 232100Z 30004KT 260V330 8000 SCT033 26/24 Q1014 NOSIG
21:00
V
27 °C 8 km - 270° 270° 6 kt METAR FTTJ 232000Z 27006KT 8000 SCT033 27/25 Q1014 NOSIG
20:00
V
27 °C 8 km - 200° 200° 6 kt METAR FTTJ 231900Z 20006KT 8000 SCT033 27/25 Q1013 NOSIG
19:00
V
28 °C 8 km - 230° 230° 4 kt METAR FTTJ 231800Z 23004KT 8000 FEW033 28/24 Q1013 NOSIG
18:00
V
28 °C 8 km - 230° 230° 7 kt METAR FTTJ 231700Z 23007KT 8000 FEW033 28/24 Q1011 NOSIG
17:00
V
29 °C 8 km - 210° 210° 7 kt METAR FTTJ 231600Z 21007KT 180V250 8000 SCT030 29/24 Q1012 NOSIG
16:00
V
29 °C 8 km - 180° 180° 10 kt METAR FTTJ 231500Z 18010KT 8000 SCT030 29/24 Q1012 NOSIG
15:00
V
30 °C 8 km - 180° 180° 8 kt METAR FTTJ 231400Z 18008KT 8000 SCT030 30/25 Q1012 NOSIG
14:00
M
30 °C 8 km 3.000 ft 200° 200° 8 kt METAR FTTJ 231300Z 20008KT 160V230 8000 BKN030 30/25 Q1013 NOSIG
13:00
M
30 °C 8 km 3.000 ft 220° 220° 9 kt METAR FTTJ 231200Z 22009KT 8000 BKN030 30/25 Q1013 NOSIG
12:00
M
30 °C 8 km 3.000 ft 220° 220° 6 kt METAR FTTJ 231100Z 22006KT 180V260 8000 BKN030 30/25 Q1014 NOSIG
11:00
V
29 °C 8 km - 220° 220° 9 kt METAR FTTJ 231000Z 22009KT 8000 SCT026 29/25 Q1015 NOSIG
10:00
V
29 °C 8 km - 220° 220° 9 kt METAR FTTJ 230900Z 22009KT 8000 FEW026 29/25 Q1015 NOSIG
09:00
M
28 °C 7 km - 220° 220° 9 kt METAR FTTJ 230800Z 22009KT 200V260 7000 FEW040 28/25 Q1014 NOSIG
08:00
M
28 °C 7 km - 210° 210° 7 kt METAR FTTJ 230700Z 21007KT 7000 FEW026 28/25 Q1014 NOSIG
07:00
M
27 °C 7 km - 220° 220° 5 kt METAR FTTJ 230600Z 22005KT 180V240 7000 FEW020 27/26 Q1013 NOSIG
06:00
M
26 °C 7 km - 200° 200° 4 kt METAR FTTJ 230500Z 20004KT 7000 FEW020 26/26 Q1013 NOSIG
05:00
M
27 °C 7 km - 200° 200° 7 kt METAR FTTJ 230400Z 20007KT 170V230 7000 FEW020 27/26 Q1012 NOSIG
04:00
M
27 °C 7 km - 200° 200° 3 kt METAR FTTJ 230300Z 20003KT 7000 FEW020 27/26 Q1012 NOSIG
03:00
M
27 °C 7 km - 230° 230° 5 kt METAR FTTJ 230200Z 23005KT 7000 FEW020 27/26 Q1012 NOSIG
02:00
M
27 °C 7 km - 250° 250° 5 kt METAR FTTJ 230100Z 25005KT 7000 FEW020 27/26 Q1012 NOSIG
01:00
V
27 °C 8 km - 250° 250° 2 kt METAR FTTJ 230000Z 25002KT 8000 FEW020 27/26 Q1013 NOSIG
00:00
V
27 °C 8 km - 220° 220° 3 kt METAR FTTJ 222300Z 22003KT 8000 FEW020 27/26 Q1013 NOSIG

22 luglio 2024

Tempo Codice Tempo meteorologico Temp. Vista Base nuvolosa Vento METAR/SPECI
23:00
V
27 °C 8 km - 250° 250° 2 kt METAR FTTJ 222200Z 25002KT 8000 FEW020 27/26 Q1013 NOSIG
22:00
M
28 °C 7 km - 250° 250° 2 kt METAR FTTJ 222100Z 25002KT 7000 FEW020 28/26 Q1013 NOSIG
21:00
M
28 °C 7 km - 250° 250° 2 kt METAR FTTJ 222000Z 25002KT 7000 FEW020 28/26 Q1012 NOSIG
20:00
M
28 °C 7 km - 230° 230° 3 kt METAR FTTJ 221900Z 23003KT 7000 FEW020 28/26 Q1012 NOSIG
19:00
M
29 °C 6 km - 220° 220° 3 kt METAR FTTJ 221800Z 22003KT 6000 FEW026 FEW040CB 29/25 Q1012 TEMPO TS
18:00
V
30 °C 8 km - 250° 250° 5 kt METAR FTTJ 221700Z 25005KT 8000 SCT030 FEW040CB 30/24 Q1011 TEMPO TS
17:00
V
31 °C 8 km - 280° 280° 8 kt METAR FTTJ 221600Z 28008KT 8000 SCT030 31/24 Q1010 NOSIG
16:00
V
31 °C 8 km - 260° 260° 11 kt METAR FTTJ 221500Z 26011KT 8000 SCT030 FEW040CB 31/24 Q1010 TEMPO TS
15:00
M
31 °C 8 km 3.000 ft 270° 270° 9 kt METAR FTTJ 221400Z 27009KT 240V300 8000 BKN030 FEW040CB 31/24 Q1012 TEMPO TS
14:00
M
31 °C 8 km 3.000 ft 270° 270° 11 kt METAR FTTJ 221300Z 27011KT 240V330 8000 BKN030 31/24 Q1012 NOSIG
13:00
M
31 °C 8 km 3.000 ft 270° 270° 13 kt METAR FTTJ 221200Z 27013KT 8000 BKN030 31/24 Q1012 NOSIG
12:00
M
30 °C 7 km 3.000 ft 260° 260° 12 kt METAR FTTJ 221100Z 26012KT 220V310 7000 BKN030 30/24 Q1013 NOSIG
11:00
M
29 °C 7 km 2.000 ft 270° 270° 13 kt METAR FTTJ 221000Z 27013KT 250V310 7000 BKN020 29/24 Q1014 NOSIG
10:00
M
28 °C 7 km 2.000 ft 260° 260° 11 kt METAR FTTJ 220900Z 26011KT 7000 BKN020 28/25 Q1014 NOSIG
09:00
M
26 °C 7 km - 250° 250° 10 kt METAR FTTJ 220800Z 25010KT 7000 SCT020 26/24 Q1014 NOSIG
08:00
M
25 °C 7 km - 250° 250° 10 kt METAR FTTJ 220700Z 25010KT 7000 SCT020 25/24 Q1013 NOSIG
07:00
M
24 °C 6 km - 240° 240° 7 kt METAR FTTJ 220600Z 24007KT 210V290 6000 SCT020 24/24 Q1013 NOSIG
06:00
M
24 °C 6 km - 240° 240° 6 kt METAR FTTJ 220500Z 24006KT 6000 SCT020 24/24 Q1012 NOSIG
05:00
M
24 °C 6 km - 250° 250° 5 kt METAR FTTJ 220400Z 25005KT 6000 FEW020 24/24 Q1012 NOSIG
04:00
M
24 °C 6 km - 280° 280° 4 kt METAR FTTJ 220300Z 28004KT 6000 FEW020 24/24 Q1012 NOSIG
03:00
M
24 °C 6 km - 260° 260° 7 kt METAR FTTJ 220200Z 26007KT 6000 FEW020 24/24 Q1012 NOSIG
02:00
M
24 °C 6 km - 260° 260° 6 kt METAR FTTJ 220100Z 26006KT 6000 FEW020 24/24 Q1012 NOSIG
01:00
M
24 °C 6 km - 250° 250° 8 kt METAR FTTJ 220000Z 25008KT 6000 FEW016 24/24 Q1013 NOSIG
00:00
M
24 °C 6 km - 230° 230° 7 kt METAR FTTJ 212300Z 23007KT 6000 SCT016 24/24 Q1013 NOSIG

21 luglio 2024

Tempo Codice Tempo meteorologico Temp. Vista Base nuvolosa Vento METAR/SPECI
23:00
M
24 °C 6 km - 230° 230° 4 kt METAR FTTJ 212200Z 23004KT 6000 SCT016 24/24 Q1013 NOSIG
21:00
M
24 °C 6 km - 240° 240° 4 kt METAR FTTJ 212000Z 24004KT 6000 SCT016 24/24 Q1012 NOSIG
20:00
M
24 °C 6 km - 200° 200° 4 kt METAR FTTJ 211900Z 20004KT 6000 SCT016 24/24 Q1012 RETSRA NOSIG
19:00
M
24 °C 6 km - 230° 230° 4 kt METAR FTTJ 211800Z 23004KT 6000 -TSRA SCT016 FEW040CB 24/24 Q1011 BECMG NSW
18:00
M
24 °C 6 km - Var Var 1 kt METAR FTTJ 211700Z VRB01KT 6000 -TSRA SCT016 FEW040CB 24/24 Q1012 NOSIG
17:00
M
23 °C 6 km - 360° 360° 0 kt METAR FTTJ 211600Z 00000KT 6000 -TSRA SCT016 FEW040CB 23/23 Q1012 NOSIG
16:00
I
23 °C 2,8 km - 240° 240° 6 kt METAR FTTJ 211500Z 24006KT 190V310 2800 TSRA SCT016 FEW040CB 23/23 Q1012 NOSIG
15:00
M
26 °C 6 km - 350° 350° 15 kt METAR FTTJ 211400Z 35015KT 320V020 6000 TS SCT016 FEW040CB 26/24 Q1011 TEMPO 4000 TSRA
14:00
I
28 °C 4 km - 180° 180° 4 kt METAR FTTJ 211300Z 18004KT 150V220 4000 TSRA SCT026 FEW046CB 28/25 Q1012 TEMPO 2500 TSRA
13:00
V
30 °C 8 km - 280° 280° 11 kt METAR FTTJ 211200Z 28011KT 8000 SCT026 FEW046CB 30/23 Q1012 TEMPO TS
12:00
V
30 °C 8 km - 260° 260° 9 kt METAR FTTJ 211100Z 26009KT 230V290 8000 SCT026 FEW046CB 30/24 Q1013 TEMPO TS
11:00
V
30 °C 8 km - 240° 240° 10 kt METAR FTTJ 211000Z 24010KT 210V280 8000 SCT026TCU 30/23 Q1014 NOSIG
10:00
V
29 °C 8 km - 260° 260° 11 kt METAR FTTJ 210900Z 26011KT 8000 SCT026 29/24 Q1014 NOSIG
09:00
V
28 °C 8 km - 250° 250° 9 kt METAR FTTJ 210800Z 25009KT 220V290 8000 FEW026 28/23 Q1014 NOSIG
08:00
V
27 °C 8 km - 240° 240° 9 kt METAR FTTJ 210700Z 24009KT 220V280 8000 FEW026 27/23 Q1013 NOSIG
07:00
V
25 °C 8 km - 240° 240° 7 kt METAR FTTJ 210600Z 24007KT 8000 FEW026 25/24 Q1013 NOSIG
Segnala modifiche